createdAt,value
2023-02-12T00:00:45.108Z,4.13
2023-02-12T00:02:50.732Z,4.13
2023-02-12T00:04:55.824Z,4.12
2023-02-12T00:07:00.986Z,4.13
2023-02-12T00:09:06.875Z,4.14
2023-02-12T00:11:19.001Z,4.11
2023-02-12T00:13:23.966Z,4.14
2023-02-12T00:15:29.201Z,4.14
2023-02-12T00:17:34.135Z,4.12
2023-02-12T00:19:39.568Z,4.10
2023-02-12T00:21:44.459Z,4.10
2023-02-12T00:23:49.712Z,4.09
2023-02-12T00:25:55.225Z,4.08
2023-02-12T00:28:03.210Z,4.10
2023-02-12T00:30:10.552Z,4.10
2023-02-12T00:32:19.451Z,4.09
2023-02-12T00:34:24.353Z,4.10
2023-02-12T00:36:32.188Z,4.05
2023-02-12T00:38:38.152Z,4.04
2023-02-12T00:40:43.081Z,4.08
2023-02-12T00:42:48.422Z,4.07
2023-02-12T00:44:55.864Z,4.04
2023-02-12T00:47:02.764Z,4.04
2023-02-12T00:49:07.686Z,4.02
2023-02-12T00:51:14.114Z,4.03
2023-02-12T00:53:19.821Z,4.02
2023-02-12T00:55:25.011Z,4.01
2023-02-12T00:57:30.678Z,4.00
2023-02-12T00:59:36.810Z,4.02
2023-02-12T01:01:44.795Z,4.02
2023-02-12T01:03:49.739Z,3.99
2023-02-12T01:05:55.177Z,3.97
2023-02-12T01:08:00.361Z,3.97
2023-02-12T01:10:05.635Z,3.96
2023-02-12T01:12:13.807Z,3.94
2023-02-12T01:14:18.723Z,3.96
2023-02-12T01:16:27.811Z,3.95
2023-02-12T01:18:37.162Z,3.94
2023-02-12T01:20:43.116Z,3.96
2023-02-12T01:22:48.231Z,3.98
2023-02-12T01:24:53.199Z,3.97
2023-02-12T01:26:58.097Z,3.96
2023-02-12T01:29:06.402Z,3.97
2023-02-12T01:31:13.577Z,3.97
2023-02-12T01:33:18.694Z,3.98
2023-02-12T01:35:26.532Z,3.94
2023-02-12T01:37:31.837Z,3.95
2023-02-12T01:39:36.885Z,3.91
2023-02-12T01:41:45.520Z,3.90
2023-02-12T01:44:15.541Z,3.88
2023-02-12T01:46:20.483Z,3.89
2023-02-12T01:48:28.595Z,3.88
2023-02-12T01:50:36.692Z,3.90
2023-02-12T01:52:49.280Z,3.91
2023-02-12T01:54:57.301Z,3.88
2023-02-12T01:57:03.274Z,3.86
2023-02-12T01:59:09.106Z,3.85
2023-02-12T02:01:21.003Z,3.86
2023-02-12T02:03:26.179Z,3.83
2023-02-12T02:05:45.138Z,3.79
2023-02-12T02:07:50.174Z,3.82
2023-02-12T02:09:55.666Z,3.89
2023-02-12T02:12:13.404Z,3.89
2023-02-12T02:14:30.820Z,3.85
2023-02-12T02:16:39.683Z,3.82
2023-02-12T02:18:48.893Z,3.82
2023-02-12T02:21:48.700Z,3.83
2023-02-12T02:24:28.946Z,3.83
2023-02-12T02:27:25.857Z,3.83
2023-02-12T02:30:15.046Z,3.81
2023-02-12T02:32:26.281Z,3.76
2023-02-12T02:34:41.243Z,3.75
2023-02-12T02:37:00.528Z,3.75
2023-02-12T02:39:11.812Z,3.73
2023-02-12T02:41:23.838Z,3.71
2023-02-12T02:43:36.054Z,3.71
2023-02-12T02:45:49.275Z,3.77
2023-02-12T02:47:57.988Z,3.73
2023-02-12T02:50:10.584Z,3.75
2023-02-12T02:52:21.796Z,3.78
2023-02-12T02:54:33.546Z,3.78
2023-02-12T02:56:45.164Z,3.79
2023-02-12T02:58:55.860Z,3.82
2023-02-12T03:01:08.142Z,3.85
2023-02-12T03:03:22.828Z,3.83
2023-02-12T03:05:34.032Z,3.81
2023-02-12T03:07:45.069Z,3.82
2023-02-12T03:09:56.912Z,3.83
2023-02-12T03:12:07.657Z,3.83
2023-02-12T03:14:19.018Z,3.82
2023-02-12T03:16:30.777Z,3.81
2023-02-12T03:18:42.985Z,3.87
2023-02-12T03:20:54.020Z,3.90
2023-02-12T03:23:04.773Z,3.86
2023-02-12T03:25:17.522Z,3.84
2023-02-12T03:27:29.924Z,3.84
2023-02-12T03:29:35.571Z,3.88
2023-02-12T03:32:02.485Z,3.94
2023-02-12T03:34:18.185Z,3.94
2023-02-12T03:36:35.110Z,3.94
2023-02-12T03:38:45.549Z,3.95
2023-02-12T03:40:56.508Z,3.98
2023-02-12T03:43:07.877Z,4.01
2023-02-12T03:45:25.684Z,4.00
2023-02-12T03:47:46.716Z,4.00
2023-02-12T03:50:05.349Z,4.04
2023-02-12T03:52:10.447Z,3.97
2023-02-12T03:54:19.341Z,3.91
2023-02-12T03:56:31.371Z,3.93
2023-02-12T03:58:40.376Z,3.91
2023-02-12T04:00:48.882Z,3.88
2023-02-12T04:02:58.172Z,3.88
2023-02-12T04:05:08.405Z,3.86
2023-02-12T04:07:14.455Z,3.84
2023-02-12T04:09:21.222Z,3.85
2023-02-12T04:11:36.780Z,3.84
2023-02-12T04:13:53.232Z,3.86
2023-02-12T04:16:16.566Z,3.86
2023-02-12T04:18:34.173Z,3.84
2023-02-12T04:20:55.835Z,3.83
2023-02-12T04:23:14.328Z,3.84
2023-02-12T04:25:43.947Z,3.86
2023-02-12T04:27:59.215Z,3.87
2023-02-12T04:30:10.077Z,3.80
2023-02-12T04:32:21.263Z,3.82
2023-02-12T04:34:37.257Z,3.80
2023-02-12T04:36:52.641Z,3.81
2023-02-12T04:39:03.719Z,3.79
2023-02-12T04:41:09.524Z,3.77
2023-02-12T04:43:14.480Z,3.79
2023-02-12T04:45:24.644Z,3.79
2023-02-12T04:47:30.037Z,3.82
2023-02-12T04:49:37.515Z,3.82
2023-02-12T04:51:42.386Z,3.82
2023-02-12T04:53:47.691Z,3.78
2023-02-12T04:55:52.872Z,3.80
2023-02-12T04:57:57.960Z,3.80
2023-02-12T05:00:05.043Z,3.81
2023-02-12T05:02:10.459Z,3.78
2023-02-12T05:04:17.812Z,3.76
2023-02-12T05:06:25.275Z,3.76
2023-02-12T05:08:30.629Z,3.75
2023-02-12T05:10:35.518Z,3.74
2023-02-12T05:12:40.400Z,3.74
2023-02-12T05:14:45.850Z,3.70
2023-02-12T05:16:50.728Z,3.68
2023-02-12T05:18:55.606Z,3.69
2023-02-12T05:21:01.423Z,3.73
2023-02-12T05:23:09.358Z,3.73
2023-02-12T05:25:14.388Z,3.71
2023-02-12T05:27:19.242Z,3.68
2023-02-12T05:29:24.725Z,3.71
2023-02-12T05:31:29.882Z,3.70
2023-02-12T05:33:35.672Z,3.70
2023-02-12T05:35:40.504Z,3.67
2023-02-12T05:37:46.038Z,3.67
2023-02-12T05:39:54.675Z,3.65
2023-02-12T05:41:59.549Z,3.68
2023-02-12T05:44:05.629Z,3.67
2023-02-12T05:46:11.575Z,3.66
2023-02-12T05:48:17.281Z,3.65
2023-02-12T05:50:23.074Z,3.64
2023-02-12T05:52:37.793Z,3.61
2023-02-12T05:54:42.666Z,3.60
2023-02-12T05:56:51.222Z,3.61
2023-02-12T05:59:00.016Z,3.59
2023-02-12T06:01:04.923Z,3.57
2023-02-12T06:03:09.751Z,3.56
2023-02-12T06:05:15.139Z,3.59
2023-02-12T06:07:20.016Z,3.59
2023-02-12T06:09:26.217Z,3.59
2023-02-12T06:11:31.571Z,3.60
2023-02-12T06:13:39.148Z,3.60
2023-02-12T06:15:43.988Z,3.58
2023-02-12T06:17:49.421Z,3.60
2023-02-12T06:19:54.243Z,3.55
2023-02-12T06:21:59.081Z,3.57
2023-02-12T06:24:04.776Z,3.53
2023-02-12T06:26:09.840Z,3.53
2023-02-12T06:28:14.685Z,3.52
2023-02-12T06:30:22.945Z,3.52
2023-02-12T06:32:27.926Z,3.54
2023-02-12T06:34:32.783Z,3.56
2023-02-12T06:36:40.288Z,3.57
2023-02-12T06:38:45.428Z,3.53
2023-02-12T06:40:50.297Z,3.55
2023-02-12T06:42:55.123Z,3.55
2023-02-12T06:44:59.945Z,3.54
2023-02-12T06:47:07.569Z,3.55
2023-02-12T06:49:16.662Z,3.55
2023-02-12T06:51:23.528Z,3.57
2023-02-12T06:53:28.540Z,3.58
2023-02-12T06:55:33.424Z,3.60
2023-02-12T06:57:38.472Z,3.62
2023-02-12T06:59:43.340Z,3.63
2023-02-12T07:01:48.215Z,3.65
2023-02-12T07:03:58.255Z,3.64
2023-02-12T07:06:03.101Z,3.68
2023-02-12T07:08:07.939Z,3.67
2023-02-12T07:10:13.725Z,3.67
2023-02-12T07:12:18.696Z,3.67
2023-02-12T07:14:23.528Z,3.67
2023-02-12T07:16:28.917Z,3.68
2023-02-12T07:18:33.829Z,3.70
2023-02-12T07:20:41.289Z,3.70
2023-02-12T07:22:46.189Z,3.69
2023-02-12T07:24:51.938Z,3.70
2023-02-12T07:26:56.851Z,3.73
2023-02-12T07:29:01.955Z,3.74
2023-02-12T07:31:11.703Z,3.81
2023-02-12T07:33:16.610Z,3.86
2023-02-12T07:35:21.666Z,3.92
2023-02-12T07:37:29.163Z,3.97
2023-02-12T07:39:33.994Z,4.01
2023-02-12T07:41:40.196Z,4.02
2023-02-12T07:43:47.737Z,4.08
2023-02-12T07:45:53.283Z,4.13
2023-02-12T07:47:58.961Z,4.15
2023-02-12T07:50:03.860Z,4.20
2023-02-12T07:52:09.084Z,4.23
2023-02-12T07:54:19.094Z,4.21
2023-02-12T07:56:29.579Z,4.21
2023-02-12T07:58:34.498Z,4.26
2023-02-12T08:00:40.377Z,4.26
2023-02-12T08:02:45.380Z,4.30
2023-02-12T08:04:50.573Z,4.35
2023-02-12T08:06:58.631Z,4.40
2023-02-12T08:09:07.089Z,4.46
2023-02-12T08:11:18.522Z,4.50
2023-02-12T08:13:23.346Z,4.51
2023-02-12T08:15:28.785Z,4.56
2023-02-12T08:17:34.700Z,4.62
2023-02-12T08:19:39.837Z,4.67
2023-02-12T08:21:45.068Z,4.74
2023-02-12T08:23:52.129Z,4.77
2023-02-12T08:25:57.340Z,4.83
2023-02-12T08:28:04.985Z,4.88
2023-02-12T08:30:15.387Z,4.91
2023-02-12T08:32:20.394Z,4.96
2023-02-12T08:34:27.989Z,4.98
2023-02-12T08:36:39.400Z,5.10
2023-02-12T08:38:46.828Z,5.14
2023-02-12T08:40:51.684Z,5.14
2023-02-12T08:42:56.534Z,5.13
2023-02-12T08:45:04.007Z,5.24
2023-02-12T08:47:10.181Z,5.31
2023-02-12T08:49:18.412Z,5.39
2023-02-12T08:51:26.245Z,5.45
2023-02-12T08:53:31.077Z,5.51
2023-02-12T08:55:36.950Z,5.61
2023-02-12T08:57:41.996Z,5.71
2023-02-12T08:59:47.310Z,5.80
2023-02-12T09:01:56.691Z,5.82
2023-02-12T09:04:02.420Z,5.95
2023-02-12T09:06:10.426Z,6.08
2023-02-12T09:08:15.279Z,6.06
2023-02-12T09:10:20.708Z,6.18
2023-02-12T09:12:26.175Z,6.23
2023-02-12T09:14:31.146Z,6.26
2023-02-12T09:16:40.427Z,6.27
2023-02-12T09:18:48.451Z,6.35
2023-02-12T09:20:53.524Z,6.43
2023-02-12T09:22:58.372Z,6.62
2023-02-12T09:25:03.423Z,6.71
2023-02-12T09:27:08.254Z,6.78
2023-02-12T09:29:13.078Z,7.00
2023-02-12T09:31:21.061Z,7.02
2023-02-12T09:33:26.055Z,7.05
2023-02-12T09:35:33.812Z,6.99
2023-02-12T09:37:39.161Z,7.27
2023-02-12T09:39:45.014Z,7.32
2023-02-12T09:42:24.021Z,7.26
2023-02-12T09:44:39.141Z,7.26
2023-02-12T09:46:52.465Z,7.30
2023-02-12T09:49:03.388Z,7.54
2023-02-12T09:51:12.616Z,7.78
2023-02-12T09:53:22.614Z,8.01
2023-02-12T09:55:32.620Z,8.14
2023-02-12T09:57:40.217Z,8.17
2023-02-12T09:59:51.947Z,8.35
2023-02-12T10:01:56.849Z,8.33
2023-02-12T10:04:02.961Z,8.35
2023-02-12T10:06:16.823Z,8.63
2023-02-12T10:08:46.413Z,8.63
2023-02-12T10:10:56.607Z,8.69
2023-02-12T10:13:07.494Z,8.62
2023-02-12T10:15:29.796Z,8.76
2023-02-12T10:17:45.286Z,8.71
2023-02-12T10:20:40.343Z,8.74
2023-02-12T10:23:03.153Z,8.82
2023-02-12T10:25:21.023Z,8.93
2023-02-12T10:27:39.734Z,8.92
2023-02-12T10:29:47.706Z,9.01
2023-02-12T10:34:26.501Z,9.16
2023-02-12T10:36:44.294Z,9.17
2023-02-12T10:38:58.189Z,9.37
2023-02-12T10:41:03.419Z,9.21
2023-02-12T10:43:10.330Z,9.16
2023-02-12T10:45:18.050Z,9.03
2023-02-12T10:47:27.444Z,9.17
2023-02-12T10:49:35.367Z,9.01
2023-02-12T10:51:57.398Z,9.34
2023-02-12T10:54:44.106Z,9.49
2023-02-12T10:56:49.079Z,9.73
2023-02-12T10:59:00.533Z,9.47
2023-02-12T11:01:06.954Z,9.35
2023-02-12T11:03:25.166Z,9.38
2023-02-12T11:05:35.630Z,9.47
2023-02-12T11:07:52.650Z,9.60
2023-02-12T11:10:00.602Z,9.52
2023-02-12T11:12:06.680Z,9.87
2023-02-12T11:14:22.864Z,9.72
2023-02-12T11:16:33.662Z,9.77
2023-02-12T11:18:39.916Z,9.63
2023-02-12T11:20:54.033Z,9.82
2023-02-12T11:23:03.353Z,9.59
2023-02-12T11:25:19.680Z,9.48
2023-02-12T11:27:32.890Z,9.65
2023-02-12T11:29:37.558Z,9.79
2023-02-12T11:31:43.033Z,9.88
2023-02-12T11:33:48.253Z,10.01
2023-02-12T11:36:00.941Z,10.46
2023-02-12T11:38:07.470Z,10.53
2023-02-12T11:40:23.838Z,11.00
2023-02-12T11:42:33.543Z,11.18
2023-02-12T11:44:42.645Z,10.66
2023-02-12T11:46:52.227Z,10.59
2023-02-12T11:49:01.301Z,10.36
2023-02-12T11:51:10.099Z,10.52
2023-02-12T11:53:25.589Z,10.38
2023-02-12T11:55:37.630Z,10.24
2023-02-12T11:57:48.681Z,10.46
2023-02-12T11:59:54.921Z,10.16
2023-02-12T12:02:05.251Z,9.97
2023-02-12T12:04:15.593Z,9.79
2023-02-12T12:06:35.316Z,9.54
2023-02-12T12:08:46.889Z,9.37
2023-02-12T12:11:03.793Z,9.45
2023-02-12T12:13:15.800Z,9.58
2023-02-12T12:15:38.953Z,9.59
2023-02-12T12:18:02.555Z,9.57
2023-02-12T12:20:12.854Z,9.51
2023-02-12T12:22:41.196Z,9.59
2023-02-12T12:24:54.579Z,9.61
2023-02-12T12:27:14.330Z,9.57
2023-02-12T12:29:26.926Z,9.78
2023-02-12T12:31:38.572Z,9.81
2023-02-12T12:33:49.652Z,9.78
2023-02-12T12:36:15.383Z,9.40
2023-02-12T12:38:33.748Z,9.44
2023-02-12T12:40:55.510Z,9.40
2023-02-12T12:43:15.631Z,9.40
2023-02-12T12:45:50.929Z,9.12
2023-02-12T12:48:12.861Z,9.12
2023-02-12T12:50:38.457Z,8.96
2023-02-12T12:53:06.867Z,9.03
2023-02-12T12:55:39.081Z,9.05
2023-02-12T12:57:59.107Z,9.02
2023-02-12T13:00:36.365Z,9.08
2023-02-12T13:03:29.261Z,9.24
2023-02-12T13:06:01.595Z,8.96
2023-02-12T13:08:16.904Z,9.06
2023-02-12T13:10:35.543Z,8.85
2023-02-12T13:13:03.907Z,8.99
2023-02-12T13:15:21.450Z,9.10
2023-02-12T13:17:34.523Z,9.17
2023-02-12T13:19:55.006Z,9.17
2023-02-12T13:22:11.131Z,9.23
2023-02-12T13:24:29.513Z,9.33
2023-02-12T13:26:52.813Z,9.33
2023-02-12T13:29:04.996Z,9.46
2023-02-12T13:31:33.700Z,9.33
2023-02-12T13:33:47.710Z,9.31
2023-02-12T13:35:59.490Z,9.35
2023-02-12T13:38:09.433Z,9.25
2023-02-12T13:40:20.636Z,9.36
2023-02-12T13:42:50.830Z,9.23
2023-02-12T13:45:10.386Z,9.28
2023-02-12T13:47:24.025Z,9.23
2023-02-12T13:49:44.783Z,9.01
2023-02-12T13:51:53.224Z,8.93
2023-02-12T13:54:26.185Z,8.86
2023-02-12T13:56:43.074Z,8.63
2023-02-12T13:58:55.892Z,8.57
2023-02-12T14:01:03.795Z,8.66
2023-02-12T14:03:12.746Z,8.66
2023-02-12T14:05:33.627Z,8.52
2023-02-12T14:07:49.251Z,8.50
2023-02-12T14:10:08.031Z,8.63
2023-02-12T14:12:18.040Z,8.56
2023-02-12T14:14:30.703Z,8.40
2023-02-12T14:16:43.489Z,8.37
2023-02-12T14:18:48.397Z,8.46
2023-02-12T14:21:42.391Z,8.38
2023-02-12T14:23:47.895Z,8.31
2023-02-12T14:26:05.363Z,8.36
2023-02-12T14:28:29.088Z,8.18
2023-02-12T14:30:40.327Z,8.22
2023-02-12T14:33:11.612Z,8.27
2023-02-12T14:35:35.806Z,8.42
2023-02-12T14:37:43.273Z,8.33
2023-02-12T14:39:48.329Z,8.20
2023-02-12T14:41:57.276Z,8.12
2023-02-12T14:44:47.394Z,8.10
2023-02-12T14:46:54.949Z,8.05
2023-02-12T14:49:05.663Z,8.08
2023-02-12T14:51:22.752Z,8.07
2023-02-12T14:53:35.648Z,8.01
2023-02-12T14:55:44.649Z,8.06
2023-02-12T14:57:50.527Z,7.93
2023-02-12T15:00:00.697Z,7.90
2023-02-12T15:02:06.783Z,7.91
2023-02-12T15:04:20.260Z,7.83
2023-02-12T15:06:32.739Z,7.96
2023-02-12T15:08:49.602Z,7.93
2023-02-12T15:11:02.759Z,7.87
2023-02-12T15:13:26.215Z,7.89
2023-02-12T15:15:37.461Z,7.74
2023-02-12T15:17:48.436Z,7.62
2023-02-12T15:20:02.148Z,7.54
2023-02-12T15:22:15.359Z,7.58
2023-02-12T15:24:27.849Z,7.52
2023-02-12T15:26:36.808Z,7.51
2023-02-12T15:28:43.551Z,7.52
2023-02-12T15:30:49.402Z,7.51
2023-02-12T15:32:54.791Z,7.52
2023-02-12T15:35:00.114Z,7.51
2023-02-12T15:37:08.655Z,7.52
2023-02-12T15:39:23.035Z,7.43
2023-02-12T15:41:41.885Z,7.36
2023-02-12T15:43:47.327Z,7.28
2023-02-12T15:45:55.553Z,7.17
2023-02-12T15:48:13.063Z,7.18
2023-02-12T15:50:19.720Z,7.19
2023-02-12T15:52:34.614Z,7.24
2023-02-12T15:54:40.441Z,7.22
2023-02-12T15:56:48.465Z,7.24
2023-02-12T15:58:55.579Z,7.23
2023-02-12T16:01:06.166Z,7.15
2023-02-12T16:03:25.840Z,7.27
2023-02-12T16:05:31.975Z,7.27
2023-02-12T16:07:39.929Z,7.19
2023-02-12T16:09:45.897Z,7.12
2023-02-12T16:11:53.537Z,7.10
2023-02-12T16:14:03.090Z,7.09
2023-02-12T16:16:18.617Z,7.04
2023-02-12T16:18:28.743Z,7.00
2023-02-12T16:20:34.981Z,6.94
2023-02-12T16:22:42.914Z,6.96
2023-02-12T16:24:53.050Z,6.93
2023-02-12T16:27:03.718Z,6.92
2023-02-12T16:29:08.718Z,6.85
2023-02-12T16:31:17.286Z,6.92
2023-02-12T16:33:37.114Z,6.88
2023-02-12T16:35:43.022Z,6.92
2023-02-12T16:37:51.291Z,6.79
2023-02-12T16:40:26.692Z,6.75
2023-02-12T16:42:34.780Z,6.93
2023-02-12T16:44:39.643Z,6.98
2023-02-12T16:46:50.705Z,6.95
2023-02-12T16:48:59.464Z,6.91
2023-02-12T16:51:06.294Z,6.91
2023-02-12T16:53:43.111Z,7.04
2023-02-12T16:55:48.056Z,6.89
2023-02-12T16:57:55.555Z,6.80
2023-02-12T17:00:00.422Z,6.76
2023-02-12T17:02:13.056Z,6.72
2023-02-12T17:04:18.979Z,6.75
2023-02-12T17:06:27.638Z,6.78
2023-02-12T17:08:32.594Z,6.73
2023-02-12T17:10:37.474Z,6.81
2023-02-12T17:12:48.710Z,6.77
2023-02-12T17:14:57.179Z,6.70
2023-02-12T17:17:02.136Z,6.73
2023-02-12T17:19:07.044Z,6.76
2023-02-12T17:21:22.899Z,6.67
2023-02-12T17:23:28.950Z,6.71
2023-02-12T17:25:36.206Z,6.78
2023-02-12T17:27:41.399Z,6.74
2023-02-12T17:29:46.550Z,6.70
2023-02-12T17:31:55.995Z,6.62
2023-02-12T17:34:01.701Z,6.60
2023-02-12T17:36:07.634Z,6.58
2023-02-12T17:38:12.686Z,6.55
2023-02-12T17:40:18.102Z,6.58
2023-02-12T17:42:23.062Z,6.56
2023-02-12T17:44:28.094Z,6.66
2023-02-12T17:46:33.908Z,6.65
2023-02-12T17:48:41.369Z,6.71
2023-02-12T17:50:46.950Z,6.75
2023-02-12T17:52:52.033Z,6.66
2023-02-12T17:54:56.911Z,6.56
2023-02-12T17:57:01.866Z,6.51
2023-02-12T17:59:07.248Z,6.50
2023-02-12T18:01:14.961Z,6.50
2023-02-12T18:03:20.105Z,6.48
2023-02-12T18:05:27.800Z,6.46
2023-02-12T18:07:36.363Z,6.43
2023-02-12T18:09:41.338Z,6.41
2023-02-12T18:11:46.472Z,6.38
2023-02-12T18:13:55.722Z,6.41
2023-02-12T18:16:01.359Z,6.38
2023-02-12T18:18:06.800Z,6.34
2023-02-12T18:20:14.134Z,6.33
2023-02-12T18:22:22.179Z,6.34
2023-02-12T18:24:27.099Z,6.35
2023-02-12T18:26:31.985Z,6.38
2023-02-12T18:28:37.432Z,6.44
2023-02-12T18:30:43.816Z,6.45
2023-02-12T18:32:48.863Z,6.40
2023-02-12T18:34:54.080Z,6.38
2023-02-12T18:36:58.955Z,6.41
2023-02-12T18:39:07.125Z,6.42
2023-02-12T18:41:15.205Z,6.39
2023-02-12T18:43:20.051Z,6.36
2023-02-12T18:45:24.995Z,6.33
2023-02-12T18:47:29.895Z,6.31
2023-02-12T18:49:34.787Z,6.29
2023-02-12T18:51:41.078Z,6.27
2023-02-12T18:53:46.612Z,6.27
2023-02-12T18:55:54.261Z,6.23
2023-02-12T18:57:59.151Z,6.21
2023-02-12T19:02:41.558Z,6.20
2023-02-12T19:04:46.672Z,6.20
2023-02-12T19:06:53.717Z,6.19
2023-02-12T19:08:59.145Z,6.19
2023-02-12T19:11:08.880Z,6.18
2023-02-12T19:13:14.104Z,6.18
2023-02-12T19:15:20.131Z,6.18
2023-02-12T19:17:25.057Z,6.18
2023-02-12T19:19:32.510Z,6.15
2023-02-12T19:21:39.513Z,6.17
2023-02-12T19:23:44.936Z,6.15
2023-02-12T19:25:49.874Z,6.17
2023-02-12T19:27:58.623Z,6.14
2023-02-12T19:30:04.334Z,6.19
2023-02-12T19:32:10.722Z,6.17
2023-02-12T19:34:20.489Z,6.12
2023-02-12T19:36:26.277Z,6.11
2023-02-12T19:38:31.840Z,6.10
2023-02-12T19:40:36.787Z,6.11
2023-02-12T19:42:41.773Z,6.12
2023-02-12T19:44:49.356Z,6.14
2023-02-12T19:46:56.545Z,6.19
2023-02-12T19:49:04.942Z,6.19
2023-02-12T19:51:11.564Z,6.12
2023-02-12T19:53:16.477Z,6.09
2023-02-12T19:55:21.402Z,6.10
2023-02-12T19:57:26.328Z,6.08
2023-02-12T19:59:32.158Z,6.15
2023-02-12T20:01:39.882Z,6.13
2023-02-12T20:03:45.887Z,6.10
2023-02-12T20:05:53.319Z,6.09
2023-02-12T20:07:58.278Z,6.06
2023-02-12T20:10:03.283Z,6.06
2023-02-12T20:12:09.011Z,6.07
2023-02-12T20:14:16.090Z,6.07
2023-02-12T20:16:24.185Z,6.03
2023-02-12T20:18:32.005Z,6.00
2023-02-12T20:20:40.982Z,6.00
2023-02-12T20:22:45.878Z,5.96
2023-02-12T20:24:50.818Z,5.94
2023-02-12T20:26:56.762Z,5.93
2023-02-12T20:29:05.200Z,5.88
2023-02-12T20:31:12.457Z,5.85
2023-02-12T20:33:17.670Z,5.86
2023-02-12T20:35:25.176Z,5.89
2023-02-12T20:37:30.178Z,5.86
2023-02-12T20:39:38.172Z,5.84
2023-02-12T20:41:44.033Z,5.84
2023-02-12T20:43:49.029Z,5.85
2023-02-12T20:45:53.952Z,5.87
2023-02-12T20:47:58.869Z,5.88
2023-02-12T20:50:04.126Z,5.88
2023-02-12T20:52:11.881Z,5.90
2023-02-12T20:54:16.816Z,5.85
2023-02-12T20:56:25.904Z,5.87
2023-02-12T20:58:31.213Z,5.83
2023-02-12T21:00:36.133Z,5.81
2023-02-12T21:02:41.101Z,5.79
2023-02-12T21:04:46.094Z,5.75
2023-02-12T21:06:52.020Z,5.75
2023-02-12T21:08:59.977Z,5.76
2023-02-12T21:11:09.856Z,5.77
2023-02-12T21:13:14.794Z,5.75
2023-02-12T21:15:19.982Z,5.76
2023-02-12T21:17:24.929Z,5.76
2023-02-12T21:19:30.066Z,5.75
2023-02-12T21:21:37.831Z,5.76
2023-02-12T21:23:43.416Z,5.76
2023-02-12T21:25:51.480Z,5.73
2023-02-12T21:27:56.386Z,5.73
2023-02-12T21:30:01.286Z,5.72
2023-02-12T21:32:06.415Z,5.71
2023-02-12T21:34:17.559Z,5.70
2023-02-12T21:36:24.585Z,5.70
2023-02-12T21:38:29.503Z,5.72
2023-02-12T21:42:44.552Z,5.70
2023-02-12T21:44:49.789Z,5.69
2023-02-12T21:46:55.500Z,5.70
2023-02-12T21:49:01.858Z,5.68
2023-02-12T21:51:07.904Z,5.65
2023-02-12T21:53:12.846Z,5.63
2023-02-12T21:55:18.064Z,5.65
2023-02-12T21:57:22.969Z,5.63
2023-02-12T21:59:32.523Z,5.62
2023-02-12T22:01:40.104Z,5.61
2023-02-12T22:03:45.929Z,5.62
2023-02-12T22:05:50.825Z,5.64
2023-02-12T22:07:55.744Z,5.64
2023-02-12T22:10:01.181Z,5.65
2023-02-12T22:12:06.957Z,5.71
2023-02-12T22:14:16.013Z,5.68
2023-02-12T22:16:27.025Z,5.65
2023-02-12T22:18:31.963Z,5.63
2023-02-12T22:20:37.108Z,5.66
2023-02-12T22:22:42.476Z,5.68
2023-02-12T22:24:47.614Z,5.68
2023-02-12T22:26:53.068Z,5.63
2023-02-12T22:29:00.086Z,5.61
2023-02-12T22:31:09.769Z,5.57
2023-02-12T22:33:17.271Z,5.55
2023-02-12T22:35:22.694Z,5.52
2023-02-12T22:37:28.028Z,5.51
2023-02-12T22:39:33.281Z,5.48
2023-02-12T22:41:41.965Z,5.46
2023-02-12T22:43:47.493Z,5.45
2023-02-12T22:45:52.458Z,5.45
2023-02-12T22:47:57.418Z,5.46
2023-02-12T22:50:05.279Z,5.44
2023-02-12T22:52:10.266Z,5.44
2023-02-12T22:54:17.700Z,5.41
2023-02-12T22:56:23.346Z,5.40
2023-02-12T22:58:28.294Z,5.39
2023-02-12T23:00:33.720Z,5.37
2023-02-12T23:02:39.212Z,5.37
2023-02-12T23:04:44.195Z,5.34
2023-02-12T23:06:52.110Z,5.33
2023-02-12T23:09:00.852Z,5.33
2023-02-12T23:11:07.969Z,5.34
2023-02-12T23:13:24.637Z,5.33
2023-02-12T23:15:35.073Z,5.32
2023-02-12T23:17:40.092Z,5.31
2023-02-12T23:19:45.301Z,5.29
2023-02-12T23:21:52.819Z,5.27
2023-02-12T23:23:59.347Z,5.31
2023-02-12T23:26:04.956Z,5.32
2023-02-12T23:28:10.409Z,5.32
2023-02-12T23:30:17.769Z,5.31
2023-02-12T23:32:23.138Z,5.28
2023-02-12T23:34:28.845Z,5.32
2023-02-12T23:36:33.850Z,5.33
2023-02-12T23:38:41.444Z,5.33
2023-02-12T23:40:47.176Z,5.33
2023-02-12T23:42:52.843Z,5.36
2023-02-12T23:44:58.107Z,5.38
2023-02-12T23:47:03.053Z,5.39
2023-02-12T23:49:08.451Z,5.40
2023-02-12T23:51:14.193Z,5.42
2023-02-12T23:53:19.423Z,5.42
2023-02-12T23:55:27.012Z,5.42
2023-02-12T23:57:32.078Z,5.42
2023-02-12T23:59:37.936Z,5.43
